createdAt,value
2023-03-22T00:00:38.670Z,23.50
2023-03-22T00:03:07.484Z,23.72
2023-03-22T00:05:37.621Z,23.46
2023-03-22T00:08:25.548Z,23.59
2023-03-22T00:10:55.747Z,23.27
2023-03-22T00:13:25.833Z,22.86
2023-03-22T00:15:55.604Z,22.78
2023-03-22T00:18:30.562Z,22.51
2023-03-22T00:20:59.596Z,22.41
2023-03-22T00:23:28.553Z,22.62
2023-03-22T00:25:56.906Z,22.74
2023-03-22T00:28:24.998Z,22.79
2023-03-22T00:30:59.029Z,22.23
2023-03-22T00:33:29.681Z,22.36
2023-03-22T00:35:59.636Z,22.96
2023-03-22T00:38:41.960Z,22.95
2023-03-22T00:41:18.775Z,23.08
2023-03-22T00:43:48.546Z,23.26
2023-03-22T00:46:19.321Z,22.92
2023-03-22T00:48:48.739Z,23.24
2023-03-22T00:51:16.926Z,22.73
2023-03-22T00:53:45.461Z,23.04
2023-03-22T00:56:15.915Z,23.09
2023-03-22T00:58:48.329Z,22.72
2023-03-22T01:01:17.551Z,22.59
2023-03-22T01:03:50.785Z,22.78
2023-03-22T01:06:19.084Z,22.89
2023-03-22T01:08:50.994Z,22.82
2023-03-22T01:11:21.843Z,22.98
2023-03-22T01:13:50.480Z,23.11
2023-03-22T01:16:18.969Z,22.99
2023-03-22T01:18:47.155Z,22.86
2023-03-22T01:21:15.468Z,22.84
2023-03-22T01:23:43.576Z,22.82
2023-03-22T01:26:11.745Z,23.00
2023-03-22T01:28:40.755Z,22.71
2023-03-22T01:31:08.856Z,22.59
2023-03-22T01:33:37.930Z,22.73
2023-03-22T01:36:06.958Z,22.98
2023-03-22T01:38:35.797Z,22.90
2023-03-22T01:41:04.162Z,22.52
2023-03-22T01:43:35.402Z,22.36
2023-03-22T01:46:04.450Z,22.73
2023-03-22T01:48:42.359Z,22.82
2023-03-22T01:51:13.770Z,23.01
2023-03-22T01:54:07.031Z,22.95
2023-03-22T01:56:36.860Z,22.89
2023-03-22T01:59:05.581Z,22.92
2023-03-22T02:01:52.907Z,22.78
2023-03-22T02:04:23.504Z,22.82
2023-03-22T02:06:54.153Z,22.90
2023-03-22T02:09:22.395Z,23.03
2023-03-22T02:11:59.653Z,23.07
2023-03-22T02:14:37.619Z,22.90
2023-03-22T02:18:57.882Z,18.09
2023-03-22T02:21:52.452Z,19.74
2023-03-22T02:24:49.613Z,20.08
2023-03-22T02:27:20.765Z,20.34
2023-03-22T02:29:56.545Z,20.77
2023-03-22T02:32:52.579Z,20.63
2023-03-22T02:36:07.449Z,20.89
2023-03-22T02:39:16.044Z,20.44
2023-03-22T02:42:15.859Z,20.22
2023-03-22T02:44:50.633Z,20.20
2023-03-22T02:47:49.854Z,20.48
2023-03-22T02:50:46.664Z,20.72
2023-03-22T02:53:21.151Z,20.75
2023-03-22T02:55:54.254Z,21.00
2023-03-22T02:58:38.162Z,20.99
2023-03-22T03:01:09.475Z,20.92
2023-03-22T03:03:37.799Z,20.90
2023-03-22T03:06:10.085Z,21.18
2023-03-22T03:08:38.392Z,21.34
2023-03-22T03:11:10.945Z,21.15
2023-03-22T03:13:40.476Z,20.89
2023-03-22T03:16:13.280Z,21.12
2023-03-22T03:18:55.123Z,21.28
2023-03-22T03:21:45.430Z,21.52
2023-03-22T03:24:28.655Z,21.47
2023-03-22T03:27:04.572Z,21.63
2023-03-22T03:29:40.358Z,21.83
2023-03-22T03:32:31.678Z,21.97
2023-03-22T03:35:22.427Z,21.93
2023-03-22T03:38:21.772Z,21.77
2023-03-22T03:40:53.838Z,21.88
2023-03-22T03:43:23.275Z,21.75
2023-03-22T03:45:53.390Z,21.47
2023-03-22T03:48:23.576Z,21.29
2023-03-22T03:50:52.537Z,21.21
2023-03-22T03:53:20.923Z,21.51
2023-03-22T03:55:49.096Z,21.74
2023-03-22T03:58:17.710Z,21.79
2023-03-22T04:00:47.010Z,21.88
2023-03-22T04:03:21.025Z,21.82
2023-03-22T04:06:18.386Z,21.97
2023-03-22T04:08:53.905Z,21.99
2023-03-22T04:11:27.491Z,21.80
2023-03-22T04:13:58.080Z,21.80
2023-03-22T04:16:26.499Z,21.77
2023-03-22T04:18:55.393Z,21.47
2023-03-22T04:21:23.828Z,21.73
2023-03-22T04:23:59.462Z,21.56
2023-03-22T04:26:29.490Z,21.57
2023-03-22T04:29:18.377Z,21.53
2023-03-22T04:31:56.325Z,21.32
2023-03-22T04:34:29.843Z,21.36
2023-03-22T04:37:03.858Z,21.33
2023-03-22T04:39:34.696Z,21.50
2023-03-22T04:42:21.719Z,21.77
2023-03-22T04:44:53.664Z,21.72
2023-03-22T04:47:22.345Z,21.66
2023-03-22T04:49:50.418Z,21.61
2023-03-22T04:52:19.038Z,21.54
2023-03-22T04:54:52.683Z,21.49
2023-03-22T04:57:21.419Z,21.65
2023-03-22T04:59:50.078Z,21.83
2023-03-22T05:02:19.070Z,21.66
2023-03-22T05:04:49.031Z,21.79
2023-03-22T05:07:29.926Z,22.26
2023-03-22T05:09:59.768Z,22.26
2023-03-22T05:12:28.573Z,21.78
2023-03-22T05:15:14.397Z,22.29
2023-03-22T05:17:43.880Z,22.26
2023-03-22T05:20:11.917Z,22.09
2023-03-22T05:22:42.253Z,22.31
2023-03-22T05:25:11.885Z,22.28
2023-03-22T05:27:42.889Z,22.03
2023-03-22T05:30:31.240Z,22.22
2023-03-22T05:33:04.539Z,22.29
2023-03-22T05:35:38.559Z,22.32
2023-03-22T05:38:07.979Z,22.13
2023-03-22T05:40:39.934Z,22.00
2023-03-22T05:43:08.390Z,22.45
2023-03-22T05:45:40.310Z,22.41
2023-03-22T05:48:15.731Z,22.86
2023-03-22T05:50:44.216Z,23.02
2023-03-22T05:53:13.663Z,22.93
2023-03-22T05:55:50.101Z,22.81
2023-03-22T05:58:24.295Z,23.26
2023-03-22T06:00:52.560Z,23.63
2023-03-22T06:03:27.426Z,23.36
2023-03-22T06:06:13.843Z,23.65
2023-03-22T06:08:47.554Z,23.87
2023-03-22T06:11:23.160Z,24.22
2023-03-22T06:13:51.485Z,24.42
2023-03-22T06:16:20.518Z,24.87
2023-03-22T06:18:49.386Z,25.27
2023-03-22T06:21:18.029Z,25.76
2023-03-22T06:23:46.840Z,25.89
2023-03-22T06:26:19.299Z,25.26
2023-03-22T06:28:47.838Z,24.99
2023-03-22T06:31:16.693Z,25.25
2023-03-22T06:33:57.940Z,25.76
2023-03-22T06:36:30.371Z,25.56
2023-03-22T06:39:14.068Z,25.65
2023-03-22T06:41:45.949Z,25.98
2023-03-22T06:44:14.442Z,26.10
2023-03-22T06:46:51.352Z,26.11
2023-03-22T06:49:44.183Z,26.21
2023-03-22T06:52:16.878Z,26.46
2023-03-22T06:54:45.412Z,26.59
2023-03-22T06:57:13.428Z,27.11
2023-03-22T06:59:41.566Z,27.16
2023-03-22T07:02:13.789Z,27.25
2023-03-22T07:04:46.665Z,27.85
2023-03-22T07:07:15.999Z,28.35
2023-03-22T07:09:44.018Z,29.65
2023-03-22T07:12:13.492Z,30.46
2023-03-22T07:14:42.414Z,31.14
2023-03-22T07:17:32.520Z,32.11
2023-03-22T07:20:02.250Z,32.30
2023-03-22T07:22:31.364Z,32.42
2023-03-22T07:25:01.869Z,32.27
2023-03-22T07:27:50.858Z,31.79
2023-03-22T07:30:21.305Z,31.21
2023-03-22T07:32:50.071Z,29.84
2023-03-22T07:35:19.103Z,29.66
2023-03-22T07:37:48.870Z,29.61
2023-03-22T07:40:26.179Z,30.13
2023-03-22T07:42:56.273Z,30.36
2023-03-22T07:45:43.156Z,31.35
2023-03-22T07:48:49.855Z,31.66
2023-03-22T07:51:38.200Z,33.09
2023-03-22T07:54:07.805Z,34.28
2023-03-22T07:56:36.546Z,34.28
2023-03-22T07:59:05.327Z,35.37
2023-03-22T08:01:33.886Z,35.62
2023-03-22T08:04:08.433Z,36.01
2023-03-22T08:06:58.762Z,35.98
2023-03-22T08:09:28.919Z,35.85
2023-03-22T08:11:58.400Z,35.97
2023-03-22T08:14:36.049Z,36.44
2023-03-22T08:17:07.831Z,36.77
2023-03-22T08:19:36.961Z,36.65
2023-03-22T08:22:08.118Z,36.70
2023-03-22T08:24:59.428Z,36.83
2023-03-22T08:27:31.767Z,36.98
2023-03-22T08:30:01.091Z,36.98
2023-03-22T08:32:29.418Z,36.62
2023-03-22T08:34:58.912Z,36.20
2023-03-22T08:37:27.117Z,35.70
2023-03-22T08:39:55.424Z,35.50
2023-03-22T08:42:38.517Z,35.39
2023-03-22T08:45:10.385Z,35.42
2023-03-22T08:47:44.483Z,34.54
2023-03-22T08:50:13.453Z,34.68
2023-03-22T08:52:49.053Z,34.92
2023-03-22T08:55:24.948Z,35.20
2023-03-22T08:58:22.102Z,35.63
2023-03-22T09:01:29.066Z,36.30
2023-03-22T09:04:04.123Z,36.50
2023-03-22T09:06:32.562Z,37.10
2023-03-22T09:09:03.825Z,37.54
2023-03-22T09:11:35.482Z,37.51
2023-03-22T09:14:03.660Z,37.25
2023-03-22T09:16:39.249Z,36.63
2023-03-22T09:19:07.999Z,36.22
2023-03-22T09:21:36.491Z,35.89
2023-03-22T09:24:21.728Z,35.65
2023-03-22T09:26:53.975Z,34.84
2023-03-22T09:29:22.450Z,34.45
2023-03-22T09:31:53.751Z,34.53
2023-03-22T09:34:28.926Z,34.95
2023-03-22T09:37:02.515Z,34.73
2023-03-22T09:39:38.570Z,34.58
2023-03-22T09:42:10.994Z,34.47
2023-03-22T09:44:41.706Z,34.62
2023-03-22T09:47:13.947Z,34.40
2023-03-22T09:49:53.823Z,34.23
2023-03-22T09:52:22.762Z,33.98
2023-03-22T09:54:52.851Z,34.04
2023-03-22T09:57:36.561Z,34.19
2023-03-22T10:00:27.488Z,34.28
2023-03-22T10:02:57.316Z,34.39
2023-03-22T10:05:27.703Z,34.51
2023-03-22T10:08:17.820Z,34.51
2023-03-22T10:10:46.996Z,34.36
2023-03-22T10:13:33.211Z,34.26
2023-03-22T10:16:06.939Z,34.52
2023-03-22T10:18:40.636Z,34.15
2023-03-22T10:21:15.863Z,33.75
2023-03-22T10:23:44.213Z,33.42
2023-03-22T10:26:29.475Z,32.96
2023-03-22T10:29:04.625Z,32.80
2023-03-22T10:31:33.139Z,32.94
2023-03-22T10:34:33.691Z,33.23
2023-03-22T10:37:02.297Z,33.75
2023-03-22T10:39:34.096Z,33.95
2023-03-22T10:42:08.136Z,33.95
2023-03-22T10:44:48.224Z,33.99
2023-03-22T10:47:18.398Z,34.02
2023-03-22T10:49:54.626Z,34.32
2023-03-22T10:53:05.940Z,34.27
2023-03-22T10:55:39.716Z,33.95
2023-03-22T10:58:22.365Z,33.37
2023-03-22T11:00:53.158Z,32.72
2023-03-22T11:03:36.997Z,32.71
2023-03-22T11:06:13.585Z,32.25
2023-03-22T11:08:43.696Z,32.02
2023-03-22T11:11:32.650Z,32.02
2023-03-22T11:14:06.105Z,31.96
2023-03-22T11:16:46.567Z,32.16
2023-03-22T11:19:17.452Z,32.12
2023-03-22T11:21:46.881Z,31.72
2023-03-22T11:24:15.747Z,31.15
2023-03-22T11:27:03.368Z,30.84
2023-03-22T11:29:46.488Z,30.61
2023-03-22T11:32:37.311Z,30.67
2023-03-22T11:35:18.583Z,30.83
2023-03-22T11:37:48.746Z,30.63
2023-03-22T11:40:21.851Z,30.49
2023-03-22T11:42:54.051Z,30.50
2023-03-22T11:45:30.864Z,30.29
2023-03-22T11:48:06.845Z,30.50
2023-03-22T11:50:36.891Z,30.93
2023-03-22T11:53:09.064Z,30.82
2023-03-22T11:55:37.961Z,30.70
2023-03-22T11:58:27.154Z,30.53
2023-03-22T12:00:58.880Z,30.80
2023-03-22T12:03:31.465Z,31.06
2023-03-22T12:06:04.620Z,31.32
2023-03-22T12:08:42.822Z,31.82
2023-03-22T12:11:33.710Z,32.06
2023-03-22T12:14:23.836Z,31.67
2023-03-22T12:16:59.983Z,32.44
2023-03-22T12:19:48.778Z,32.46
2023-03-22T12:22:18.878Z,32.62
2023-03-22T12:24:46.845Z,32.47
2023-03-22T12:27:30.877Z,32.42
2023-03-22T12:30:01.494Z,32.06
2023-03-22T12:32:36.265Z,31.90
2023-03-22T12:35:19.643Z,31.85
2023-03-22T12:37:50.115Z,31.70
2023-03-22T12:40:24.562Z,31.81
2023-03-22T12:43:00.263Z,31.65
2023-03-22T12:45:39.589Z,31.75
2023-03-22T12:48:15.560Z,31.55
2023-03-22T12:50:58.421Z,31.98
2023-03-22T12:53:28.384Z,31.97
2023-03-22T12:55:56.259Z,31.90
2023-03-22T12:58:24.950Z,31.62
2023-03-22T13:00:56.133Z,32.40
2023-03-22T13:03:29.083Z,32.37
2023-03-22T13:06:03.551Z,31.83
2023-03-22T13:09:01.312Z,31.63
2023-03-22T13:11:32.046Z,31.95
2023-03-22T13:14:00.201Z,32.21
2023-03-22T13:16:49.239Z,31.91
2023-03-22T13:19:52.201Z,31.73
2023-03-22T13:22:28.527Z,31.74
2023-03-22T13:24:59.259Z,31.66
2023-03-22T13:27:38.290Z,31.94
2023-03-22T13:30:22.018Z,32.00
2023-03-22T13:33:04.492Z,32.27
2023-03-22T13:35:51.325Z,32.31
2023-03-22T13:38:19.674Z,32.08
2023-03-22T13:40:52.223Z,31.96
2023-03-22T13:43:24.453Z,31.92
2023-03-22T13:46:18.091Z,31.95
2023-03-22T13:48:47.283Z,31.39
2023-03-22T13:51:23.586Z,31.37
2023-03-22T13:54:09.911Z,31.49
2023-03-22T13:56:44.715Z,31.63
2023-03-22T13:59:33.670Z,31.41
2023-03-22T14:02:28.772Z,31.34
2023-03-22T14:05:16.457Z,31.11
2023-03-22T14:07:50.830Z,30.77
2023-03-22T14:10:24.801Z,30.17
2023-03-22T14:13:16.578Z,29.97
2023-03-22T14:15:49.985Z,30.23
2023-03-22T14:18:34.285Z,30.29
2023-03-22T14:21:07.326Z,30.28
